Time;durP1;ratioP1;P1;durP2;ratioP2;P2;SDS_P1;SDS_P2;PMS_P1;PMS_P2;Temp;Humidity;BMP_temperature;BMP_pressure;BME280_temperature;BME280_humidity;BME280_pressure;Samples;Min_cycle;Max_cycle;Signal;HPM_P1;HPM_P2
2021/01/11 00:02:24;;;;;;;64.15;22.85;;;;;;;-8.91;100.00;98304.28;4990083;28;20053;-79
2021/01/11 00:04:51;;;;;;;69.35;23.60;;;;;;;-8.85;100.00;98306.19;4989266;28;20069;-79
2021/01/11 00:07:17;;;;;;;65.97;22.30;;;;;;;-8.87;100.00;98303.75;4990313;28;20501;-79
2021/01/11 00:09:44;;;;;;;67.97;22.90;;;;;;;-9.07;100.00;98305.22;4978011;28;20046;-79
2021/01/11 00:12:10;;;;;;;70.32;23.25;;;;;;;-8.99;100.00;98312.22;5003716;28;20043;-79
2021/01/11 00:14:36;;;;;;;70.10;24.10;;;;;;;-8.98;100.00;98303.38;4973742;28;20047;-78
2021/01/11 00:17:03;;;;;;;66.13;22.60;;;;;;;-8.99;100.00;98304.34;4975490;28;20057;-79
2021/01/11 00:19:30;;;;;;;65.28;21.90;;;;;;;-9.02;100.00;98308.13;4976698;28;20195;-79
2021/01/11 00:21:57;;;;;;;63.42;21.70;;;;;;;-9.12;100.00;98311.97;4975013;28;20038;-79
2021/01/11 00:24:23;;;;;;;59.42;20.95;;;;;;;-9.15;100.00;98312.31;4973520;28;20077;-79
2021/01/11 00:26:51;;;;;;;70.53;23.65;;;;;;;-9.00;100.00;98310.56;4975435;28;20410;-79
2021/01/11 00:29:21;;;;;;;64.90;23.13;;;;;;;-9.19;100.00;98305.81;4973122;28;20047;-79
2021/01/11 00:31:47;;;;;;;80.90;25.70;;;;;;;-8.96;100.00;98317.13;4988805;28;20314;-79
2021/01/11 00:34:14;;;;;;;61.40;21.75;;;;;;;-9.37;100.00;98318.38;4972610;28;20046;-79
2021/01/11 00:36:42;;;;;;;68.57;21.90;;;;;;;-9.33;100.00;98307.34;4973062;28;20047;-79
2021/01/11 00:39:08;;;;;;;59.45;20.80;;;;;;;-9.25;100.00;98309.94;4988817;28;20039;-78
2021/01/11 00:41:34;;;;;;;62.72;22.38;;;;;;;-9.32;100.00;98316.03;4990232;28;20724;-79
2021/01/11 00:44:01;;;;;;;65.00;21.05;;;;;;;-9.21;100.00;98310.41;4973040;28;20047;-79
2021/01/11 00:46:29;;;;;;;54.83;19.38;;;;;;;-9.29;100.00;98315.69;4988595;28;20057;-79
2021/01/11 00:48:56;;;;;;;58.45;20.73;;;;;;;-9.27;100.00;98316.34;4971411;28;20098;-79
2021/01/11 00:51:23;;;;;;;64.78;20.48;;;;;;;-9.26;100.00;98325.81;4973765;28;20050;-79
2021/01/11 00:53:50;;;;;;;62.83;20.83;;;;;;;-9.30;100.00;98314.88;4987821;28;20065;-80
2021/01/11 00:56:19;;;;;;;57.90;21.33;;;;;;;-9.38;100.00;98321.97;4973159;28;20050;-79
2021/01/11 00:58:46;;;;;;;59.58;20.00;;;;;;;-9.43;100.00;98324.28;4988775;28;20050;-79
2021/01/11 01:01:17;;;;;;;59.25;20.45;;;;;;;-9.47;100.00;98313.31;4973666;28;20054;-79
2021/01/11 01:03:43;;;;;;;60.90;20.00;;;;;;;-9.45;100.00;98316.59;4971776;28;20229;-78
2021/01/11 01:06:11;;;;;;;57.90;21.08;;;;;;;-9.57;100.00;98320.56;4972383;28;20216;-79
2021/01/11 01:08:37;;;;;;;62.10;20.90;;;;;;;-9.47;100.00;98302.84;4991173;28;20070;-79
2021/01/11 01:11:04;;;;;;;57.65;18.58;;;;;;;-9.43;100.00;98314.63;4975014;28;20049;-78
2021/01/11 01:13:30;;;;;;;57.25;18.27;;;;;;;-9.55;100.00;98303.69;4974503;28;20447;-79
2021/01/11 01:15:56;;;;;;;59.33;19.48;;;;;;;-9.78;100.00;98307.28;4977894;28;20051;-79
2021/01/11 01:18:23;;;;;;;53.80;18.75;;;;;;;-9.80;100.00;98299.56;4976099;28;20042;-79
2021/01/11 01:20:49;;;;;;;52.83;17.23;;;;;;;-9.85;100.00;98309.75;4989485;28;20043;-79
2021/01/11 01:23:15;;;;;;;48.80;17.23;;;;;;;-9.84;100.00;98315.81;4975364;28;20058;-79
2021/01/11 01:25:41;;;;;;;57.88;19.75;;;;;;;-9.76;100.00;98315.78;4989440;28;20043;-79
2021/01/11 01:28:07;;;;;;;52.42;17.85;;;;;;;-9.70;100.00;98325.53;4990148;28;20101;-79
2021/01/11 01:30:34;;;;;;;56.78;18.13;;;;;;;-9.61;100.00;98320.13;4973240;28;20057;-79
2021/01/11 01:33:02;;;;;;;56.97;19.23;;;;;;;-9.48;100.00;98331.84;4989661;28;20043;-79
2021/01/11 01:35:29;;;;;;;63.15;19.73;;;;;;;-9.41;100.00;98317.88;4989893;28;20089;-79
2021/01/11 01:37:57;;;;;;;58.92;20.13;;;;;;;-9.13;100.00;98326.88;4973162;28;20049;-79
2021/01/11 01:40:25;;;;;;;64.03;19.30;;;;;;;-9.08;100.00;98337.66;4988979;28;20244;-79
2021/01/11 01:42:52;;;;;;;49.58;18.42;;;;;;;-9.13;100.00;98326.06;4972278;28;20093;-79
2021/01/11 01:45:18;;;;;;;53.08;18.42;;;;;;;-9.12;100.00;98323.28;4989088;28;20042;-79
2021/01/11 01:47:46;;;;;;;51.95;18.90;;;;;;;-9.15;100.00;98334.13;4990629;28;20043;-79
2021/01/11 01:50:15;;;;;;;49.30;17.17;;;;;;;-9.10;100.00;98337.03;4976503;28;20061;-79
2021/01/11 01:52:44;;;;;;;47.70;17.55;;;;;;;-9.23;100.00;98325.47;4976149;28;20046;-79
2021/01/11 01:55:12;;;;;;;44.92;16.35;;;;;;;-9.20;100.00;98323.34;4974355;28;20174;-79
2021/01/11 01:57:43;;;;;;;55.47;16.63;;;;;;;-9.17;100.00;98327.41;4973872;28;20126;-79
2021/01/11 02:00:13;;;;;;;47.50;16.73;;;;;;;-9.35;100.00;98317.19;4973400;28;20047;-79
2021/01/11 02:02:39;;;;;;;49.72;17.27;;;;;;;-9.28;100.00;98317.31;4990137;28;20046;-79
2021/01/11 02:05:07;;;;;;;53.25;18.17;;;;;;;-9.41;100.00;98299.53;5009672;23;20053;-75
2021/01/11 02:07:46;;;;;;;50.30;17.17;;;;;;;-9.45;100.00;98307.91;4989192;28;20042;-76
2021/01/11 02:10:40;;;;;;;43.22;15.75;;;;;;;-9.47;100.00;98312.53;5008092;28;20044;-77
2021/01/11 02:13:31;;;;;;;39.33;14.13;;;;;;;-9.47;100.00;98305.47;5008568;28;20050;-77
2021/01/11 02:16:11;;;;;;;47.30;15.85;;;;;;;-9.51;100.00;98296.31;4995530;28;20050;-77
2021/01/11 02:18:50;;;;;;;42.13;14.48;;;;;;;-9.51;100.00;98286.66;4991121;28;20042;-76
2021/01/11 02:21:25;;;;;;;49.15;17.02;;;;;;;-9.49;100.00;98289.09;4991937;28;20042;-76
2021/01/11 02:24:10;;;;;;;45.38;15.70;;;;;;;-9.38;100.00;98296.56;4990574;28;20058;-76
2021/01/11 02:26:51;;;;;;;39.10;14.20;;;;;;;-9.51;100.00;98289.28;4974717;28;20128;-76
2021/01/11 02:29:39;;;;;;;40.67;13.95;;;;;;;-9.63;100.00;98284.59;4974296;28;20084;-77
2021/01/11 02:32:08;;;;;;;35.95;12.80;;;;;;;-9.75;100.00;98285.97;4991805;28;20047;-77
2021/01/11 02:34:37;;;;;;;36.08;12.73;;;;;;;-9.58;100.00;98293.59;4991741;28;20046;-76
2021/01/11 02:37:04;;;;;;;38.78;12.93;;;;;;;-9.60;100.00;98292.91;4991864;28;20066;-77
2021/01/11 02:39:31;;;;;;;35.17;12.65;;;;;;;-9.58;100.00;98284.91;4991181;28;20049;-77
2021/01/11 02:41:57;;;;;;;31.75;10.70;;;;;;;-9.62;100.00;98283.59;4991362;28;20054;-77
2021/01/11 02:44:23;;;;;;;28.90;10.23;;;;;;;-9.57;100.00;98297.81;4991117;28;20046;-77
2021/01/11 02:46:50;;;;;;;33.38;11.10;;;;;;;-9.51;100.00;98291.09;4990446;28;20049;-77
2021/01/11 02:49:27;;;;;;;31.20;11.23;;;;;;;-9.31;100.00;98287.03;4991721;28;20046;-77
2021/01/11 02:52:09;;;;;;;31.23;11.07;;;;;;;-9.04;100.00;98289.16;4991648;28;20132;-77
2021/01/11 02:54:45;;;;;;;32.60;11.98;;;;;;;-8.84;100.00;98286.03;4990990;28;20077;-76
2021/01/11 02:57:20;;;;;;;29.52;10.02;;;;;;;-8.62;100.00;98287.81;4991455;28;20042;-77
2021/01/11 02:59:51;;;;;;;25.20;9.48;;;;;;;-8.02;100.00;98285.84;4973706;28;20046;-77
2021/01/11 03:02:19;;;;;;;34.10;10.23;;;;;;;-7.47;100.00;98281.88;4973789;28;20050;-77
2021/01/11 03:04:46;;;;;;;31.77;10.25;;;;;;;-7.04;100.00;98292.25;4991546;28;20043;-77
2021/01/11 03:07:12;;;;;;;35.75;11.30;;;;;;;-6.62;100.00;98290.63;4991653;28;20034;-77
2021/01/11 03:09:43;;;;;;;36.17;10.90;;;;;;;-6.29;100.00;98275.06;4990022;28;20101;-77
2021/01/11 03:12:10;;;;;;;36.45;11.32;;;;;;;-6.01;100.00;98278.50;4990976;28;20117;-77
2021/01/11 03:14:37;;;;;;;31.83;11.98;;;;;;;-5.79;100.00;98283.44;4990845;28;20402;-77
2021/01/11 03:17:04;;;;;;;35.10;11.25;;;;;;;-5.74;100.00;98281.03;4989226;28;20054;-77
2021/01/11 03:19:31;;;;;;;31.13;11.60;;;;;;;-5.56;100.00;98264.69;4990703;28;20046;-77
2021/01/11 03:21:58;;;;;;;26.77;10.80;;;;;;;-5.37;100.00;98277.16;4990587;28;20402;-77
2021/01/11 03:24:26;;;;;;;28.42;10.10;;;;;;;-5.19;100.00;98271.31;4990525;28;20046;-77
2021/01/11 03:26:52;;;;;;;29.88;10.45;;;;;;;-5.05;100.00;98268.47;4990781;28;20045;-77
2021/01/11 03:29:19;;;;;;;24.60;9.68;;;;;;;-4.96;100.00;98265.66;4989564;28;20501;-77
2021/01/11 03:31:46;;;;;;;24.95;9.98;;;;;;;-4.98;100.00;98259.78;4990571;28;20104;-78
2021/01/11 03:34:14;;;;;;;23.63;9.52;;;;;;;-4.90;100.00;98259.59;4989880;28;20145;-77
2021/01/11 03:36:41;;;;;;;21.00;9.35;;;;;;;-4.92;100.00;98245.75;4989633;28;20038;-77
2021/01/11 03:39:09;;;;;;;23.40;9.05;;;;;;;-4.79;100.00;98259.78;4990362;28;20054;-77
2021/01/11 03:41:46;;;;;;;22.95;9.60;;;;;;;-4.87;100.00;98257.34;4990577;28;20042;-77
2021/01/11 03:44:13;;;;;;;23.42;9.15;;;;;;;-4.92;100.00;98259.75;4972975;28;20336;-77
2021/01/11 03:46:39;;;;;;;22.77;9.32;;;;;;;-5.00;100.00;98257.31;4997777;28;20049;-77
2021/01/11 03:49:05;;;;;;;24.13;9.45;;;;;;;-5.01;100.00;98252.25;5003238;28;20062;-77
2021/01/11 03:51:32;;;;;;;25.65;9.55;;;;;;;-4.93;100.00;98252.06;4987014;28;20042;-77
2021/01/11 03:53:58;;;;;;;23.00;8.82;;;;;;;-4.99;100.00;98243.13;5003765;28;20042;-78
2021/01/11 03:56:24;;;;;;;22.88;9.27;;;;;;;-5.01;100.00;98244.34;4984600;28;20046;-78
2021/01/11 03:58:50;;;;;;;24.20;8.82;;;;;;;-5.00;100.00;98230.91;4995760;28;20579;-75
2021/01/11 04:01:19;;;;;;;21.98;8.75;;;;;;;-5.00;100.00;98232.75;4996877;28;20461;-77
2021/01/11 04:03:47;;;;;;;24.48;9.77;;;;;;;-4.97;100.00;98230.53;4995923;28;20528;-78
2021/01/11 04:06:19;;;;;;;23.35;8.50;;;;;;;-4.86;100.00;98226.47;4994353;28;20053;-79
2021/01/11 04:08:46;;;;;;;21.15;9.18;;;;;;;-4.81;100.00;98226.69;4993179;28;20050;-78
2021/01/11 04:11:12;;;;;;;24.02;8.95;;;;;;;-4.75;100.00;98225.88;4975131;28;20038;-78
2021/01/11 04:13:41;;;;;;;23.75;10.05;;;;;;;-4.71;100.00;98219.97;5000238;28;20044;-78
2021/01/11 04:16:10;;;;;;;22.80;9.32;;;;;;;-4.65;100.00;98216.53;4976950;28;20070;-78
2021/01/11 04:18:36;;;;;;;27.00;9.77;;;;;;;-4.55;100.00;98221.41;5008345;28;20057;-78
2021/01/11 04:21:02;;;;;;;24.30;9.40;;;;;;;-4.58;100.00;98214.69;4985309;28;20050;-78
2021/01/11 04:23:28;;;;;;;23.83;9.93;;;;;;;-4.54;100.00;98221.19;4986161;28;20042;-79
2021/01/11 04:25:55;;;;;;;25.45;10.07;;;;;;;-4.53;100.00;98214.06;5003771;28;20054;-77
2021/01/11 04:28:21;;;;;;;23.77;10.15;;;;;;;-4.41;100.00;98209.78;4992253;28;20053;-77
2021/01/11 04:30:50;;;;;;;24.75;10.38;;;;;;;-4.40;100.00;98211.41;4993506;28;20047;-77
2021/01/11 04:33:17;;;;;;;23.67;9.70;;;;;;;-4.43;100.00;98211.81;5003162;28;20133;-78
2021/01/11 04:35:45;;;;;;;21.52;9.05;;;;;;;-4.35;100.00;98205.50;5013219;28;20543;-77
2021/01/11 04:38:11;;;;;;;23.73;10.05;;;;;;;-4.42;100.00;98214.28;5003646;28;20046;-78
2021/01/11 04:40:37;;;;;;;25.80;10.80;;;;;;;-4.44;100.00;98213.63;4995553;28;20042;-78
2021/01/11 04:43:13;;;;;;;22.90;9.60;;;;;;;-4.37;100.00;98208.38;4975527;28;20520;-78
2021/01/11 04:45:39;;;;;;;23.33;9.48;;;;;;;-4.43;100.00;98204.72;4973730;28;20056;-78
2021/01/11 04:48:06;;;;;;;23.13;8.93;;;;;;;-4.44;100.00;98210.22;4991124;28;20129;-78
2021/01/11 04:50:35;;;;;;;22.50;9.82;;;;;;;-4.54;100.00;98207.97;4998077;28;20057;-77
2021/01/11 04:53:10;;;;;;;25.23;9.70;;;;;;;-4.55;100.00;98194.97;4992438;28;20046;-77
2021/01/11 04:55:38;;;;;;;22.10;9.60;;;;;;;-4.56;100.00;98190.69;4992673;28;20050;-77
2021/01/11 04:58:11;;;;;;;23.13;10.20;;;;;;;-4.52;100.00;98207.78;4991563;28;20414;-77
2021/01/11 05:00:42;;;;;;;22.48;9.88;;;;;;;-4.53;100.00;98190.28;4990145;28;20061;-77
2021/01/11 05:03:11;;;;;;;24.13;9.73;;;;;;;-4.55;100.00;98194.97;4990578;28;20038;-77
2021/01/11 05:05:46;;;;;;;22.52;9.65;;;;;;;-4.55;100.00;98198.44;4991648;28;20053;-77
2021/01/11 05:08:13;;;;;;;25.05;9.73;;;;;;;-4.62;100.00;98191.53;4994810;28;20042;-77
2021/01/11 05:10:40;;;;;;;24.15;10.05;;;;;;;-4.59;100.00;98202.50;4957588;28;20050;-76
2021/01/11 05:13:12;;;;;;;25.83;9.90;;;;;;;-4.67;100.00;98188.69;4992094;28;20486;-77
2021/01/11 05:15:40;;;;;;;24.08;9.60;;;;;;;-4.69;100.00;98193.34;4992658;28;20498;-77
2021/01/11 05:18:18;;;;;;;23.98;10.05;;;;;;;-4.78;100.00;98194.59;4993359;28;20047;-78
2021/01/11 05:20:45;;;;;;;24.38;9.90;;;;;;;-4.81;100.00;98195.00;4992469;28;20374;-79
2021/01/11 05:23:16;;;;;;;24.17;10.23;;;;;;;-4.85;100.00;98199.84;4993379;28;20061;-78
2021/01/11 05:25:44;;;;;;;24.52;10.32;;;;;;;-4.89;100.00;98203.13;4992868;28;20049;-77
2021/01/11 05:28:18;;;;;;;25.55;10.93;;;;;;;-4.94;100.00;98202.91;4994426;28;20057;-78
2021/01/11 05:30:49;;;;;;;22.33;10.38;;;;;;;-4.95;100.00;98204.72;4994476;28;20181;-78
2021/01/11 05:33:24;;;;;;;26.08;10.55;;;;;;;-5.03;100.00;98197.81;4995456;28;20057;-78
2021/01/11 05:36:12;;;;;;;24.17;10.60;;;;;;;-5.06;100.00;98206.13;4996229;28;20042;-78
2021/01/11 05:38:46;;;;;;;25.13;10.38;;;;;;;-5.12;100.00;98200.88;4976777;28;20455;-77
2021/01/11 05:41:23;;;;;;;24.20;10.60;;;;;;;-5.16;100.00;98203.09;4991749;28;20089;-77
2021/01/11 05:44:08;;;;;;;26.92;10.63;;;;;;;-5.28;100.00;98199.41;4991666;28;20054;-77
2021/01/11 05:46:36;;;;;;;23.90;9.95;;;;;;;-5.27;100.00;98197.59;4989008;28;20385;-76
2021/01/11 05:49:05;;;;;;;23.23;9.88;;;;;;;-5.21;100.00;98199.41;4991449;28;20085;-77
2021/01/11 05:51:33;;;;;;;24.00;9.95;;;;;;;-5.22;100.00;98196.00;4989983;28;20057;-77
2021/01/11 05:54:00;;;;;;;22.63;10.10;;;;;;;-4.93;100.00;98178.16;4991314;28;20050;-76
2021/01/11 05:56:53;;;;;;;24.30;10.43;;;;;;;-4.68;100.00;98187.88;4979835;28;20039;-78
2021/01/11 05:59:19;;;;;;;30.80;10.68;;;;;;;-4.55;100.00;98182.59;4991701;28;20128;-77
2021/01/11 06:01:47;;;;;;;25.20;10.55;;;;;;;-4.34;100.00;98194.75;4995135;28;20056;-78
2021/01/11 06:04:13;;;;;;;23.23;10.40;;;;;;;-4.23;100.00;98190.66;5011925;28;20042;-78
2021/01/11 06:06:40;;;;;;;22.65;9.57;;;;;;;-4.20;100.00;98188.41;5013945;28;20046;-78
2021/01/11 06:09:07;;;;;;;23.80;10.38;;;;;;;-4.22;100.00;98198.38;5013661;28;20161;-78
2021/01/11 06:11:41;;;;;;;23.98;9.88;;;;;;;-4.28;100.00;98188.63;5014488;28;20042;-78
2021/01/11 06:14:08;;;;;;;27.60;9.52;;;;;;;-4.20;100.00;98193.69;4995631;28;20057;-78
2021/01/11 06:16:38;;;;;;;27.38;10.90;;;;;;;-4.14;100.00;98190.22;5015421;28;20401;-78
2021/01/11 06:19:04;;;;;;;20.70;9.88;;;;;;;-4.21;100.00;98180.69;5014232;28;20072;-78
2021/01/11 06:21:30;;;;;;;21.30;9.95;;;;;;;-4.10;100.00;98186.13;5017987;28;20352;-80
2021/01/11 06:24:18;;;;;;;25.75;9.48;;;;;;;-4.18;100.00;98175.78;5018089;28;20501;-78
2021/01/11 06:26:46;;;;;;;19.27;8.32;;;;;;;-4.20;100.00;98195.50;5017842;28;20061;-78
2021/01/11 06:29:33;;;;;;;20.55;9.18;;;;;;;-4.18;100.00;98196.91;5017789;28;20112;-78
2021/01/11 06:32:17;;;;;;;22.30;9.40;;;;;;;-4.08;100.00;98197.34;5016800;28;20493;-78
2021/01/11 06:34:44;;;;;;;24.10;9.52;;;;;;;-3.98;100.00;98194.25;5017269;28;20509;-78
2021/01/11 06:37:21;;;;;;;22.63;8.65;;;;;;;-3.94;100.00;98182.22;5016813;28;20045;-78
2021/01/11 06:39:48;;;;;;;21.70;9.27;;;;;;;-3.78;100.00;98187.84;5017288;28;20046;-78
2021/01/11 06:42:15;;;;;;;18.42;8.38;;;;;;;-3.83;100.00;98182.38;5017620;28;20121;-78
2021/01/11 06:44:47;;;;;;;18.83;9.05;;;;;;;-3.75;100.00;98177.88;5019862;28;20065;-77
2021/01/11 06:47:26;;;;;;;19.80;8.43;;;;;;;-3.70;100.00;98178.88;5017163;28;20229;-77
2021/01/11 06:50:03;;;;;;;22.23;8.93;;;;;;;-3.79;100.00;98183.56;5016329;28;20053;-78
2021/01/11 06:52:38;;;;;;;20.45;8.98;;;;;;;-3.75;100.00;98175.22;5017297;28;20236;-79
2021/01/11 06:55:16;;;;;;;18.55;8.43;;;;;;;-3.69;100.00;98187.63;5020543;28;20092;-79
2021/01/11 06:57:48;;;;;;;21.40;9.30;;;;;;;-3.74;100.00;98185.56;5025109;28;20057;-79
2021/01/11 07:00:19;;;;;;;19.02;9.13;;;;;;;-3.77;100.00;98189.47;5006484;28;20056;-80
2021/01/11 07:02:45;;;;;;;18.85;8.60;;;;;;;-3.82;100.00;98193.78;5034309;28;20041;-78
2021/01/11 07:05:33;;;;;;;20.60;9.13;;;;;;;-3.70;100.00;98194.72;5014138;28;20053;-78
2021/01/11 07:08:01;;;;;;;18.33;8.15;;;;;;;-3.65;100.00;98197.56;5016067;28;20092;-79
2021/01/11 07:10:30;;;;;;;20.55;8.65;;;;;;;-3.67;100.00;98193.50;5006842;28;20034;-79
2021/01/11 07:13:18;;;;;;;18.67;8.63;;;;;;;-3.61;100.00;98198.75;5006142;28;20412;-80
2021/01/11 07:15:51;;;;;;;20.20;9.52;;;;;;;-3.65;100.00;98205.50;4988314;28;20052;-78
2021/01/11 07:18:36;;;;;;;19.73;8.88;;;;;;;-3.60;100.00;98196.91;5005369;28;20042;-79
2021/01/11 07:21:22;;;;;;;18.73;8.55;;;;;;;-3.58;100.00;98200.97;5004254;28;20121;-79
2021/01/11 07:23:51;;;;;;;20.90;9.32;;;;;;;-3.67;100.00;98191.69;4998868;28;20267;-80
2021/01/11 07:26:21;;;;;;;24.17;9.25;;;;;;;-3.62;100.00;98199.78;4999262;28;20042;-79
2021/01/11 07:29:08;;;;;;;20.65;9.70;;;;;;;-3.59;100.00;98207.31;4998625;28;20035;-79
2021/01/11 07:31:42;;;;;;;22.05;9.82;;;;;;;-3.57;100.00;98207.09;4995742;28;20054;-78
2021/01/11 07:34:10;;;;;;;20.83;8.85;;;;;;;-3.48;100.00;98206.63;4995648;28;20050;-78
2021/01/11 07:36:39;;;;;;;20.85;9.30;;;;;;;-3.45;100.00;98203.56;4997163;28;20248;-78
2021/01/11 07:39:27;;;;;;;20.77;9.85;;;;;;;-3.43;100.00;98198.84;4978649;28;20041;-78
2021/01/11 07:41:58;;;;;;;24.52;8.98;;;;;;;-3.34;100.00;98194.97;4998622;28;20042;-80
2021/01/11 07:44:39;;;;;;;26.80;10.32;;;;;;;-3.36;100.00;98190.91;4997164;28;20050;-80
2021/01/11 07:47:10;;;;;;;20.67;9.43;;;;;;;-3.25;100.00;98195.50;5002926;28;20042;-82
2021/01/11 07:49:48;;;;;;;21.27;9.25;;;;;;;-3.24;100.00;98191.84;4987066;28;20038;-82
2021/01/11 07:52:17;;;;;;;17.88;8.57;;;;;;;-3.02;100.00;98179.06;4995690;28;20043;-82
2021/01/11 07:54:46;;;;;;;19.48;8.88;;;;;;;-2.95;100.00;98175.34;4988089;28;20122;-82
2021/01/11 07:57:15;;;;;;;14.90;7.20;;;;;;;-2.79;100.00;98184.59;4990273;28;20066;-80
2021/01/11 07:59:43;;;;;;;17.15;7.88;;;;;;;-2.79;100.00;98185.41;4986118;28;20105;-83
2021/01/11 08:02:11;;;;;;;14.75;7.18;;;;;;;-2.71;100.00;98171.88;5005736;28;20046;-84
2021/01/11 08:04:41;;;;;;;23.63;7.80;;;;;;;-2.73;100.00;98170.47;5023154;28;20041;-82
2021/01/11 08:07:10;;;;;;;16.95;7.90;;;;;;;-2.75;100.00;98161.94;5018074;28;20077;-86
2021/01/11 08:09:38;;;;;;;15.32;7.47;;;;;;;-2.72;100.00;98156.19;5000713;28;20042;-83
2021/01/11 08:12:11;;;;;;;16.75;7.70;;;;;;;-2.72;100.00;98164.97;5025849;28;20046;-81
2021/01/11 08:14:39;;;;;;;14.93;7.85;;;;;;;-2.64;100.00;98163.88;5019613;28;20045;-80
2021/01/11 08:17:11;;;;;;;15.30;7.65;;;;;;;-2.57;100.00;98165.44;5012254;28;20049;-83
2021/01/11 08:19:41;;;;;;;18.33;8.20;;;;;;;-2.42;100.00;98185.47;5003659;28;20072;-81
2021/01/11 08:22:16;;;;;;;15.57;8.05;;;;;;;-2.06;100.00;98182.84;5006428;28;20065;-83
2021/01/11 08:24:42;;;;;;;17.17;8.10;;;;;;;-1.57;100.00;98185.31;4988964;28;20050;-82
2021/01/11 08:27:48;;;;;;;15.82;7.72;;;;;;;-0.92;100.00;98180.94;5009061;28;20486;-82
2021/01/11 08:30:20;;;;;;;15.90;7.88;;;;;;;-0.19;100.00;98167.22;5005696;28;20108;-82
2021/01/11 08:32:47;;;;;;;13.68;7.22;;;;;;;0.36;100.00;98167.56;5011546;28;20026;-84
2021/01/11 08:35:16;;;;;;;12.65;6.57;;;;;;;0.54;100.00;98160.19;5015648;28;20041;-82
2021/01/11 08:37:45;;;;;;;11.40;6.47;;;;;;;0.86;100.00;98162.38;5016038;28;20034;-80
2021/01/11 08:40:19;;;;;;;10.50;5.75;;;;;;;0.94;100.00;98140.66;5018306;28;20490;-81
2021/01/11 08:42:47;;;;;;;10.95;6.00;;;;;;;1.30;100.00;98161.53;5027634;28;20050;-80
2021/01/11 08:45:38;;;;;;;11.90;6.20;;;;;;;1.60;100.00;98153.97;5023797;28;20073;-82
2021/01/11 08:48:11;;;;;;;14.60;6.13;;;;;;;1.92;100.00;98161.38;5026795;28;20065;-82
2021/01/11 08:50:41;;;;;;;13.88;6.07;;;;;;;2.34;100.00;98157.94;5026701;28;20046;-82
2021/01/11 08:53:27;;;;;;;10.60;5.68;;;;;;;2.26;100.00;98147.69;5028446;28;20053;-82
2021/01/11 08:56:12;;;;;;;11.95;5.88;;;;;;;2.48;100.00;98153.81;5020360;28;20049;-81
2021/01/11 08:58:50;;;;;;;8.98;5.10;;;;;;;2.46;100.00;98149.78;5008489;28;20066;-82
2021/01/11 09:01:24;;;;;;;10.20;5.63;;;;;;;2.56;100.00;98155.22;5007386;28;20140;-81
2021/01/11 09:03:58;;;;;;;;;;;;;;;2.13;100.00;98161.41;5016937;28;20501;-81
2021/01/11 09:06:45;;;;;;;16.25;5.28;;;;;;;2.46;100.00;98147.09;5021619;28;19925;-80
2021/01/11 09:09:17;;;;;;;10.00;5.10;;;;;;;2.34;100.00;98163.28;5024183;28;20033;-81
2021/01/11 09:11:46;;;;;;;10.85;5.65;;;;;;;2.52;100.00;98148.78;5016756;28;20049;-81
2021/01/11 09:14:18;;;;;;;10.35;5.40;;;;;;;3.04;100.00;98165.91;5013145;28;20040;-81
2021/01/11 09:16:46;;;;;;;9.75;5.38;;;;;;;3.14;100.00;98151.81;5019714;28;20080;-81
2021/01/11 09:19:17;;;;;;;11.23;5.43;;;;;;;2.68;100.00;98163.94;5012611;28;20069;-82
2021/01/11 09:22:14;;;;;;;10.38;5.88;;;;;;;2.95;100.00;98150.56;5019671;28;20055;-82
2021/01/11 09:24:44;;;;;;;9.43;5.28;;;;;;;2.63;100.00;98163.88;5022333;28;20049;-82
2021/01/11 09:27:11;;;;;;;10.05;5.60;;;;;;;2.73;100.00;98163.97;5026852;28;20049;-81
2021/01/11 09:29:38;;;;;;;9.95;5.03;;;;;;;3.04;100.00;98160.56;5022579;28;20073;-83
2021/01/11 09:32:05;;;;;;;11.60;5.45;;;;;;;2.38;100.00;98160.91;5003598;28;20073;-80
2021/01/11 09:34:32;;;;;;;8.82;5.45;;;;;;;2.50;100.00;98164.28;5021796;28;20092;-81
2021/01/11 09:37:02;;;;;;;10.27;5.22;;;;;;;2.34;100.00;98173.97;5023497;23;20065;-77
2021/01/11 09:39:44;;;;;;;9.20;5.10;;;;;;;2.12;100.00;98130.41;5005665;28;20034;-77
2021/01/11 09:42:20;;;;;;;10.75;5.35;;;;;;;2.79;100.00;98146.09;4988942;28;20255;-77
2021/01/11 09:44:58;;;;;;;8.68;4.90;;;;;;;3.03;100.00;98182.19;4998316;28;20041;-77
2021/01/11 09:47:29;;;;;;;9.00;5.30;;;;;;;2.49;100.00;98135.91;5004540;28;20108;-76
2021/01/11 09:50:00;;;;;;;10.40;5.47;;;;;;;2.68;100.00;98142.56;4980082;28;20049;-76
2021/01/11 09:52:35;;;;;;;8.68;4.82;;;;;;;3.17;100.00;98170.03;4989782;28;20065;-79
2021/01/11 09:55:11;;;;;;;9.15;5.35;;;;;;;2.96;100.00;98160.19;4991279;28;20034;-77
2021/01/11 09:57:38;;;;;;;9.63;5.10;;;;;;;3.29;100.00;98178.69;5003640;28;20398;-78
2021/01/11 10:00:10;;;;;;;9.18;5.20;;;;;;;3.78;100.00;98148.00;5006897;28;20058;-79
2021/01/11 10:02:39;;;;;;;8.90;5.13;;;;;;;3.79;100.00;98170.25;5003424;28;20550;-79
2021/01/11 10:05:05;;;;;;;7.85;4.57;;;;;;;4.03;100.00;98167.97;5008589;28;20046;-79
2021/01/11 10:07:35;;;;;;;7.18;4.50;;;;;;;3.43;100.00;98163.81;4985947;28;20646;-80
2021/01/11 10:10:02;;;;;;;8.23;4.65;;;;;;;3.76;100.00;98176.13;4997451;28;20050;-76
2021/01/11 10:12:28;;;;;;;8.02;4.28;;;;;;;3.42;100.00;98150.69;4996865;28;20053;-78
2021/01/11 10:14:55;;;;;;;7.20;4.25;;;;;;;3.90;100.00;98155.84;4979121;28;20046;-77
2021/01/11 10:17:21;;;;;;;8.63;5.05;;;;;;;3.36;100.00;98149.84;4978394;28;20046;-77
2021/01/11 10:19:48;;;;;;;7.85;4.47;;;;;;;3.60;100.00;98145.75;4992105;28;20133;-76
2021/01/11 10:22:14;;;;;;;8.02;4.22;;;;;;;2.43;100.00;98161.78;4993711;28;20461;-78
2021/01/11 10:24:48;;;;;;;7.00;4.22;;;;;;;1.58;100.00;98149.94;4996802;28;20046;-78
2021/01/11 10:27:15;;;;;;;9.05;4.82;;;;;;;0.97;100.00;98143.66;4995680;28;20034;-79
2021/01/11 10:29:41;;;;;;;9.63;5.10;;;;;;;1.52;100.00;98138.41;4996606;28;20038;-77
2021/01/11 10:32:07;;;;;;;13.02;5.78;;;;;;;1.45;100.00;98143.09;4996485;28;20046;-76
2021/01/11 10:34:35;;;;;;;8.88;4.78;;;;;;;1.33;100.00;98142.38;4976835;28;20053;-76
2021/01/11 10:37:01;;;;;;;12.18;5.35;;;;;;;1.21;100.00;98136.31;4958349;28;20046;-77
2021/01/11 10:39:28;;;;;;;10.85;5.57;;;;;;;0.82;100.00;98129.25;4993333;28;20405;-76
2021/01/11 10:41:56;;;;;;;10.07;5.50;;;;;;;0.57;100.00;98145.59;4994239;28;20058;-79
2021/01/11 10:44:24;;;;;;;10.38;5.70;;;;;;;0.88;100.00;98136.31;4990053;28;20050;-77
2021/01/11 10:47:00;;;;;;;10.73;5.68;;;;;;;0.32;100.00;98126.47;4994860;28;20073;-79
2021/01/11 10:49:27;;;;;;;10.98;5.85;;;;;;;-0.01;100.00;98124.50;4994202;28;20046;-77
2021/01/11 10:51:55;;;;;;;11.00;6.15;;;;;;;-0.30;100.00;98131.59;4992264;28;20344;-78
2021/01/11 10:54:23;;;;;;;10.15;5.70;;;;;;;-0.33;100.00;98131.25;4976779;28;20088;-77
2021/01/11 10:56:52;;;;;;;11.75;5.95;;;;;;;-0.22;100.00;98122.44;4994245;28;20398;-77
2021/01/11 10:59:19;;;;;;;13.00;6.47;;;;;;;-0.10;100.00;98124.03;4994842;28;20082;-77
2021/01/11 11:01:48;;;;;;;12.13;6.13;;;;;;;-0.08;100.00;98116.63;4993006;28;20054;-78
2021/01/11 11:04:14;;;;;;;12.68;5.70;;;;;;;-0.11;100.00;98113.66;4995405;28;20043;-79
2021/01/11 11:06:40;;;;;;;11.05;5.72;;;;;;;-0.18;100.00;98105.00;4994861;28;20042;-77
2021/01/11 11:09:07;;;;;;;12.70;6.07;;;;;;;-0.17;100.00;98115.38;4995392;28;20097;-78
2021/01/11 11:11:35;;;;;;;10.68;6.10;;;;;;;0.07;100.00;98102.84;4994052;28;20532;-78
2021/01/11 11:14:01;;;;;;;12.50;6.88;;;;;;;0.14;100.00;98108.00;4977488;28;20058;-77
2021/01/11 11:16:27;;;;;;;10.65;5.90;;;;;;;0.25;100.00;98093.88;4977972;28;20065;-79
2021/01/11 11:18:53;;;;;;;12.13;6.38;;;;;;;0.34;100.00;98074.59;4976915;28;20045;-78
2021/01/11 11:21:20;;;;;;;13.00;6.28;;;;;;;0.44;100.00;98072.13;4994233;28;20125;-78
2021/01/11 11:23:48;;;;;;;10.88;5.90;;;;;;;0.81;100.00;98074.34;4994034;28;20049;-79
2021/01/11 11:26:20;;;;;;;12.52;6.05;;;;;;;1.00;100.00;98068.56;4993764;28;20042;-78
2021/01/11 11:28:47;;;;;;;13.48;5.90;;;;;;;0.89;100.00;98053.44;4994482;28;20038;-80
2021/01/11 11:31:15;;;;;;;9.60;5.30;;;;;;;0.90;100.00;98063.06;4994056;28;20042;-77
2021/01/11 11:34:02;;;;;;;10.60;5.60;;;;;;;0.76;100.00;98066.28;4994999;28;20047;-78